Accueil
METAR-TAF:

METAR-TAF

Aéroports :

Aéroport international Hosea Kutako de Windhoek

Windhoek, Namibie

latitude: 22-29S, longitude: 017-28E, altitude: 1715 m

Observation

Le bulletin a été fait il y a 29 minutes, à 12:00 UTC
Vent 9 kt de nord-est
Température 23°C
Humidité 23%
Pression 1028 hPa
Visibilité 10 km ou plus
pas de nuages en-dessous de 1500 mètres et pas de cumulonimbus.

METAR: FYWH 271200Z 05009KT CAVOK 23/01 Q1028 NOSIG

Heure: 14:29 (12:29 UTC)

Prévision

Le bulletin a été fait il y a 2 heures et 29 minutes, à 10:00 UTC
Prévision valable du 27 à 12 UTC au 28 à 12 UTC
Vent 10 kt de nord-est
Visibilité 10 km ou plus
pas de nuages en-dessous de 1500 mètres et pas de cumulonimbus.

TAF: FYWH 271000Z 2712/2812 05010KT CAVOK

Observations et prévisions météorologiques de plus de 4000 aéroports (messages METAR et TAF).

Les stations disponibles sont représentées par des disques jaunes et rouges sur la carte.

Passer la souris dessus pour voir le nom de la station.

Cliquer dessus pour voir les observations et prévisions météorologiques.

Pour changer de carte: cliquez sur les boutons verts avec une croix noire pour zoomer, sur le bouton vert avec un tiret pour effectuer un zoom arrière, ou sur les flèches vertes pour les cartes adjacentes.


METAR-TAF: